createdAt,value
2019-04-11T06:00:28.344Z,10.10
2019-04-11T06:01:27.849Z,12.20
2019-04-11T06:02:27.167Z,11.00
2019-04-11T06:03:28.315Z,12.00
2019-04-11T06:04:28.893Z,11.20
2019-04-11T06:05:31.422Z,11.20
2019-04-11T06:06:31.968Z,11.70
2019-04-11T06:07:29.209Z,11.80
2019-04-11T06:08:29.199Z,12.10
2019-04-11T06:09:31.345Z,10.70
2019-04-11T06:10:28.299Z,11.20
2019-04-11T06:11:27.076Z,11.40
2019-04-11T06:12:27.548Z,11.10
2019-04-11T06:13:27.066Z,11.90
2019-04-11T06:14:27.144Z,11.10
2019-04-11T06:15:27.130Z,10.90
2019-04-11T06:16:36.942Z,10.70
2019-04-11T06:17:28.061Z,11.50
2019-04-11T06:18:33.045Z,11.20
2019-04-11T06:19:28.280Z,11.40
2019-04-11T06:20:27.215Z,11.40
2019-04-11T06:21:28.286Z,11.00
2019-04-11T06:22:26.958Z,11.20
2019-04-11T06:23:27.536Z,11.30
2019-04-11T06:24:27.969Z,11.20
2019-04-11T06:25:28.238Z,11.00
2019-04-11T06:26:26.981Z,11.10
2019-04-11T06:27:26.922Z,11.50
2019-04-11T06:28:27.676Z,11.20
2019-04-11T06:29:28.383Z,10.50
2019-04-11T06:30:26.875Z,10.80
2019-04-11T06:31:26.884Z,11.00
2019-04-11T06:32:27.866Z,10.60
2019-04-11T06:33:26.855Z,10.50
2019-04-11T06:34:27.077Z,10.10
2019-04-11T06:35:26.829Z,10.10
2019-04-11T06:36:28.135Z,10.40
2019-04-11T06:37:27.730Z,11.70
2019-04-11T06:38:26.905Z,14.60
2019-04-11T06:39:27.428Z,13.70
2019-04-11T06:40:27.746Z,11.90
2019-04-11T06:41:26.778Z,10.50
2019-04-11T06:42:27.623Z,10.80
2019-04-11T06:43:27.759Z,10.50
2019-04-11T06:44:27.872Z,10.10
2019-04-11T06:45:27.255Z,10.80
2019-04-11T06:46:27.166Z,10.70
2019-04-11T06:47:27.196Z,10.40
2019-04-11T06:48:26.778Z,10.60
2019-04-11T06:49:26.672Z,10.40
2019-04-11T06:50:27.061Z,10.40
2019-04-11T06:51:26.651Z,10.50
2019-04-11T06:52:26.682Z,10.90
2019-04-11T06:53:26.668Z,10.80
2019-04-11T06:54:26.627Z,11.20
2019-04-11T06:55:26.811Z,10.70
2019-04-11T06:56:27.266Z,11.10
2019-04-11T06:57:26.691Z,11.10
2019-04-11T06:58:27.577Z,10.80
2019-04-11T06:59:26.578Z,10.60
2019-04-11T07:00:27.321Z,11.20
2019-04-11T07:01:27.871Z,10.70
2019-04-11T07:02:26.548Z,11.50
2019-04-11T07:03:29.268Z,11.50
2019-04-11T07:04:27.365Z,11.70
2019-04-11T07:05:26.798Z,11.20
2019-04-11T07:06:27.295Z,11.60
2019-04-11T07:07:28.799Z,11.00
2019-04-11T07:08:26.576Z,11.90
2019-04-11T07:09:26.462Z,10.70
2019-04-11T07:10:26.657Z,11.20
2019-04-11T07:11:27.557Z,10.80
2019-04-11T07:12:26.590Z,11.20
2019-04-11T07:13:26.559Z,11.50
2019-04-11T07:14:26.962Z,11.50
2019-04-11T07:15:27.209Z,11.20
2019-04-11T07:16:27.554Z,11.10
2019-04-11T07:17:27.480Z,11.40
2019-04-11T07:18:26.918Z,11.70
2019-04-11T07:19:26.554Z,10.70
2019-04-11T07:20:27.259Z,11.20
2019-04-11T07:21:27.386Z,11.00
2019-04-11T07:22:26.307Z,10.80
2019-04-11T07:23:26.528Z,11.50
2019-04-11T07:24:26.324Z,10.80
2019-04-11T07:25:26.875Z,11.10
2019-04-11T07:26:27.367Z,10.80
2019-04-11T07:27:26.263Z,11.70
2019-04-11T07:28:27.354Z,11.60
2019-04-11T07:29:26.261Z,11.00
2019-04-11T07:30:26.230Z,9.40
2019-04-11T07:31:27.562Z,9.50
2019-04-11T07:32:26.236Z,9.90
2019-04-11T07:33:26.704Z,9.40
2019-04-11T07:34:26.750Z,10.00
2019-04-11T07:35:27.696Z,10.00
2019-04-11T07:36:27.726Z,9.90
2019-04-11T07:37:26.252Z,10.20
2019-04-11T07:38:27.280Z,9.90
2019-04-11T07:39:26.156Z,9.30
2019-04-11T07:40:26.998Z,9.50
2019-04-11T07:41:26.149Z,10.30
2019-04-11T07:42:26.118Z,10.20
2019-04-11T07:43:26.895Z,9.90
2019-04-11T07:44:28.676Z,9.90
2019-04-11T07:45:26.106Z,9.80
2019-04-11T07:46:27.454Z,10.00
2019-04-11T07:47:26.710Z,9.80
2019-04-11T07:48:27.240Z,9.50
2019-04-11T07:49:26.481Z,9.20
2019-04-11T07:50:26.318Z,8.80
2019-04-11T07:51:25.996Z,9.30
2019-04-11T07:52:27.234Z,8.90
2019-04-11T07:53:26.272Z,8.40
2019-04-11T07:54:26.070Z,8.60
2019-04-11T07:55:25.998Z,8.70
2019-04-11T07:56:25.967Z,8.70
2019-04-11T07:57:26.337Z,9.10
2019-04-11T07:58:25.921Z,8.40
2019-04-11T07:59:27.058Z,8.80
2019-04-11T08:00:36.643Z,8.60
2019-04-11T08:01:27.108Z,8.30
2019-04-11T08:02:26.873Z,8.90
2019-04-11T08:03:25.868Z,8.50
2019-04-11T08:04:25.870Z,9.50
2019-04-11T08:05:25.892Z,9.00
2019-04-11T08:06:26.498Z,8.80
2019-04-11T08:07:25.828Z,9.00
2019-04-11T08:08:25.856Z,8.60
2019-04-11T08:09:26.721Z,8.30
2019-04-11T08:10:25.832Z,8.70
2019-04-11T08:11:25.791Z,9.10
2019-04-11T08:12:25.777Z,8.70
2019-04-11T08:13:26.248Z,8.40
2019-04-11T08:14:26.588Z,8.90
2019-04-11T08:15:25.896Z,8.70
2019-04-11T08:16:26.729Z,8.80
2019-04-11T08:17:33.773Z,8.40
2019-04-11T08:18:26.710Z,8.80
2019-04-11T08:19:26.802Z,8.80
2019-04-11T08:20:25.760Z,8.10
2019-04-11T08:21:26.223Z,8.60
2019-04-11T08:22:25.704Z,8.70
2019-04-11T08:23:25.656Z,8.60
2019-04-11T08:24:28.094Z,8.70
2019-04-11T08:25:25.632Z,9.10
2019-04-11T08:26:26.231Z,8.70
2019-04-11T08:27:25.718Z,9.20
2019-04-11T08:28:26.614Z,9.00
2019-04-11T08:29:27.066Z,8.50
2019-04-11T08:30:26.587Z,9.00
2019-04-11T08:31:26.460Z,9.20
2019-04-11T08:32:25.668Z,9.20
2019-04-11T08:33:26.654Z,9.50
2019-04-11T08:34:25.554Z,8.60
2019-04-11T08:35:26.256Z,9.30
2019-04-11T08:36:26.089Z,8.80
2019-04-11T08:37:25.535Z,9.20
2019-04-11T08:38:26.600Z,8.60
2019-04-11T08:39:25.502Z,9.40
2019-04-11T08:40:26.011Z,9.10
2019-04-11T08:41:25.487Z,8.60
2019-04-11T08:42:25.489Z,9.20
2019-04-11T08:43:26.803Z,8.80
2019-04-11T08:44:25.937Z,8.80
2019-04-11T08:45:25.796Z,8.60
2019-04-11T08:46:25.428Z,8.70
2019-04-11T08:47:39.347Z,8.90
2019-04-11T08:48:26.675Z,9.20
2019-04-11T08:49:25.759Z,8.40
2019-04-11T08:50:26.164Z,8.70
2019-04-11T08:51:25.438Z,8.70
2019-04-11T08:52:25.346Z,8.80
2019-04-11T08:53:25.337Z,8.40
2019-04-11T08:54:25.768Z,8.70
2019-04-11T08:55:25.317Z,9.50
2019-04-11T08:56:25.332Z,8.50
2019-04-11T08:57:25.482Z,9.10
2019-04-11T08:58:25.308Z,8.90
2019-04-11T08:59:25.314Z,8.50
2019-04-11T09:00:26.259Z,8.60
2019-04-11T09:01:25.254Z,8.60
2019-04-11T09:02:25.271Z,9.10
2019-04-11T09:03:25.969Z,8.40
2019-04-11T09:04:26.032Z,8.60
2019-04-11T09:05:25.218Z,8.50
2019-04-11T09:06:25.239Z,8.40
2019-04-11T09:07:25.464Z,8.30
2019-04-11T09:08:25.294Z,8.40
2019-04-11T09:09:25.194Z,8.00
2019-04-11T09:10:26.179Z,8.20
2019-04-11T09:11:25.207Z,8.60
2019-04-11T09:12:25.162Z,8.10
2019-04-11T09:13:25.123Z,8.40
2019-04-11T09:14:26.307Z,8.30
2019-04-11T09:15:25.156Z,8.50
2019-04-11T09:16:25.753Z,8.60
2019-04-11T09:17:26.173Z,8.60
2019-04-11T09:18:25.986Z,8.40
2019-04-11T09:19:25.167Z,8.90
2019-04-11T09:20:25.079Z,9.00
2019-04-11T09:21:25.038Z,8.40
2019-04-11T09:22:25.034Z,8.40
2019-04-11T09:23:25.923Z,8.70
2019-04-11T09:24:26.260Z,8.40
2019-04-11T09:25:25.288Z,8.80
2019-04-11T09:26:25.644Z,8.00
2019-04-11T09:27:24.975Z,8.80
2019-04-11T09:28:24.995Z,8.20
2019-04-11T09:29:26.090Z,8.30
2019-04-11T09:30:25.095Z,8.30
2019-04-11T09:31:25.460Z,8.50
2019-04-11T09:32:25.210Z,8.20
2019-04-11T09:33:24.921Z,8.40
2019-04-11T09:34:25.938Z,8.40
2019-04-11T09:35:24.906Z,8.50
2019-04-11T09:36:25.975Z,8.20
2019-04-11T09:37:25.335Z,8.00
2019-04-11T09:38:24.859Z,8.70
2019-04-11T09:39:24.851Z,8.70
2019-04-11T09:40:26.199Z,8.00
2019-04-11T09:41:24.850Z,8.20
2019-04-11T09:42:24.850Z,8.40
2019-04-11T09:43:26.170Z,8.10
2019-04-11T09:44:24.809Z,8.40
2019-04-11T09:45:25.746Z,8.60
2019-04-11T09:46:26.110Z,8.60
2019-04-11T09:47:24.809Z,8.10
2019-04-11T09:48:25.287Z,8.80
2019-04-11T09:49:24.861Z,8.40
2019-04-11T09:50:24.729Z,8.70
2019-04-11T09:51:26.461Z,8.30
2019-04-11T09:52:24.866Z,8.00
2019-04-11T09:53:24.713Z,7.70
2019-04-11T09:54:26.088Z,8.10
2019-04-11T09:55:25.506Z,7.80
2019-04-11T09:56:24.661Z,8.50
2019-04-11T09:57:24.941Z,8.20
2019-04-11T09:58:27.394Z,8.30
2019-04-11T09:59:25.032Z,8.90
2019-04-11T10:00:24.627Z,8.20
2019-04-11T10:01:24.624Z,8.30
2019-04-11T10:02:25.326Z,8.40
2019-04-11T10:03:25.651Z,8.10
2019-04-11T10:04:25.603Z,8.30
2019-04-11T10:05:24.599Z,8.40
2019-04-11T10:06:24.777Z,8.50
2019-04-11T10:07:25.762Z,7.90
2019-04-11T10:08:24.677Z,8.50
2019-04-11T10:09:24.532Z,7.80
2019-04-11T10:10:24.670Z,8.30
2019-04-11T10:11:24.520Z,8.80
2019-04-11T10:12:24.526Z,8.30
2019-04-11T10:13:24.952Z,8.80
2019-04-11T10:14:25.764Z,8.10
2019-04-11T10:15:24.463Z,8.60
2019-04-11T10:16:24.457Z,8.30
2019-04-11T10:17:26.323Z,8.10
2019-04-11T10:18:27.960Z,8.30
2019-04-11T10:19:25.459Z,8.40
2019-04-11T10:20:24.552Z,7.80
2019-04-11T10:21:25.865Z,8.00
2019-04-11T10:22:24.390Z,7.90
2019-04-11T10:23:25.029Z,8.20
2019-04-11T10:24:24.379Z,7.80
2019-04-11T10:25:25.334Z,7.70
2019-04-11T10:26:25.677Z,7.70
2019-04-11T10:27:24.729Z,7.70
2019-04-11T10:28:25.068Z,7.40
2019-04-11T10:29:24.315Z,8.00
2019-04-11T10:30:24.321Z,7.70
2019-04-11T10:31:24.316Z,8.10
2019-04-11T10:32:25.325Z,7.90
2019-04-11T10:33:24.722Z,8.00
2019-04-11T10:34:24.291Z,7.90
2019-04-11T10:35:24.255Z,8.10
2019-04-11T10:36:25.399Z,7.80
2019-04-11T10:37:25.454Z,8.10
2019-04-11T10:38:24.528Z,7.30
2019-04-11T10:39:25.006Z,7.40
2019-04-11T10:40:24.214Z,7.30
2019-04-11T10:41:25.183Z,8.00
2019-04-11T10:42:24.396Z,7.60
2019-04-11T10:43:24.554Z,7.50
2019-04-11T10:44:24.170Z,8.30
2019-04-11T10:45:24.879Z,7.80
2019-04-11T10:46:25.190Z,7.90
2019-04-11T10:47:25.013Z,7.90
2019-04-11T10:48:34.542Z,7.80
2019-04-11T10:49:26.195Z,8.20
2019-04-11T10:50:24.102Z,8.10
2019-04-11T10:51:24.661Z,7.40
2019-04-11T10:52:24.739Z,7.60
2019-04-11T10:53:24.951Z,7.60
2019-04-11T10:54:24.098Z,7.90
2019-04-11T10:55:25.235Z,8.50
2019-04-11T10:56:24.497Z,8.20
2019-04-11T10:57:24.346Z,8.10
2019-04-11T10:58:24.730Z,8.10
2019-04-11T10:59:26.569Z,7.50
2019-04-11T11:00:23.990Z,7.00
2019-04-11T11:01:25.124Z,7.60
2019-04-11T11:02:25.134Z,7.70
2019-04-11T11:03:24.357Z,7.60
2019-04-11T11:04:23.984Z,8.00
2019-04-11T11:05:24.302Z,7.80
2019-04-11T11:06:24.040Z,8.00
2019-04-11T11:07:24.634Z,8.10
2019-04-11T11:08:23.901Z,7.80
2019-04-11T11:09:24.014Z,7.80
2019-04-11T11:10:23.888Z,7.50
2019-04-11T11:11:24.163Z,8.20
2019-04-11T11:12:23.888Z,7.80
2019-04-11T11:13:23.858Z,7.80
2019-04-11T11:14:24.862Z,7.60
2019-04-11T11:15:23.846Z,8.10
2019-04-11T11:16:24.775Z,7.80
2019-04-11T11:17:48.247Z,8.50
2019-04-11T11:18:46.700Z,7.70
2019-04-11T11:19:43.877Z,7.70
2019-04-11T11:20:31.234Z,7.30
2019-04-11T11:21:28.573Z,7.70
2019-04-11T11:22:25.281Z,8.00
2019-04-11T11:23:24.714Z,7.90
2019-04-11T11:24:23.980Z,7.70
2019-04-11T11:25:24.664Z,8.00
2019-04-11T11:26:24.797Z,7.10
2019-04-11T11:27:24.404Z,7.40
2019-04-11T11:28:23.824Z,7.10
2019-04-11T11:29:24.310Z,8.10
2019-04-11T11:30:23.714Z,7.60
2019-04-11T11:31:24.433Z,7.60
2019-04-11T11:32:23.655Z,7.80
2019-04-11T11:33:25.118Z,7.80
2019-04-11T11:34:24.786Z,7.40
2019-04-11T11:35:27.656Z,8.10
2019-04-11T11:36:25.706Z,8.10
2019-04-11T11:37:24.842Z,7.70
2019-04-11T11:38:24.127Z,8.10
2019-04-11T11:39:24.687Z,7.60
2019-04-11T11:40:23.848Z,7.40
2019-04-11T11:41:24.717Z,7.70
2019-04-11T11:42:23.554Z,7.20
2019-04-11T11:43:23.540Z,7.40
2019-04-11T11:44:24.497Z,7.90
2019-04-11T11:45:23.653Z,7.60
2019-04-11T11:46:26.686Z,7.20
2019-04-11T11:47:24.497Z,7.50
2019-04-11T11:48:24.825Z,7.20
2019-04-11T11:49:38.855Z,7.20
2019-04-11T11:50:24.738Z,7.20
2019-04-11T11:51:27.027Z,7.10
2019-04-11T11:52:24.795Z,7.40
2019-04-11T11:53:25.803Z,7.50
2019-04-11T11:54:24.037Z,7.10
2019-04-11T11:55:23.417Z,7.30
2019-04-11T11:56:24.158Z,6.70
2019-04-11T11:57:23.567Z,6.90
2019-04-11T11:58:23.742Z,6.80
2019-04-11T11:59:23.466Z,7.00
2019-04-11T12:00:23.648Z,6.90
2019-04-11T12:01:24.059Z,7.30
2019-04-11T12:02:23.368Z,7.50
2019-04-11T12:03:26.440Z,7.70
2019-04-11T12:04:24.241Z,7.20
2019-04-11T12:05:26.113Z,7.30
2019-04-11T12:06:23.863Z,7.70
2019-04-11T12:07:23.293Z,7.70
2019-04-11T12:08:24.518Z,7.50
2019-04-11T12:09:24.521Z,7.30
2019-04-11T12:10:23.956Z,7.60
2019-04-11T12:11:24.109Z,7.90
2019-04-11T12:12:23.934Z,7.40
2019-04-11T12:13:23.223Z,7.30
2019-04-11T12:14:24.297Z,7.10
2019-04-11T12:15:25.734Z,7.40
2019-04-11T12:16:23.757Z,7.70
2019-04-11T12:17:23.191Z,7.70
2019-04-11T12:18:24.507Z,7.50
2019-04-11T12:19:23.172Z,7.10
2019-04-11T12:20:23.156Z,7.10
2019-04-11T12:21:26.346Z,7.40
2019-04-11T12:22:24.186Z,7.50
2019-04-11T12:23:24.184Z,7.30
2019-04-11T12:24:23.115Z,7.80
2019-04-11T12:25:23.110Z,7.40
2019-04-11T12:26:23.141Z,7.40
2019-04-11T12:27:23.082Z,7.80
2019-04-11T12:28:23.498Z,7.40
2019-04-11T12:29:24.098Z,7.70
2019-04-11T12:30:26.638Z,7.30
2019-04-11T12:31:24.047Z,7.60
2019-04-11T12:32:24.169Z,7.20
2019-04-11T12:33:23.503Z,7.40
2019-04-11T12:34:23.970Z,6.70
2019-04-11T12:35:24.714Z,7.00
2019-04-11T12:36:23.111Z,7.30
2019-04-11T12:37:23.182Z,7.30
2019-04-11T12:38:24.672Z,6.80
2019-04-11T12:39:24.802Z,6.80
2019-04-11T12:40:22.944Z,7.20
2019-04-11T12:41:23.011Z,6.90
2019-04-11T12:42:22.927Z,6.40
2019-04-11T12:43:22.941Z,6.90
2019-04-11T12:44:22.913Z,6.80
2019-04-11T12:45:22.898Z,7.70
2019-04-11T12:46:29.800Z,7.10
2019-04-11T12:47:23.902Z,8.00
2019-04-11T12:48:22.872Z,7.60
2019-04-11T12:49:22.867Z,8.00
2019-04-11T12:50:22.841Z,7.80
2019-04-11T12:51:22.845Z,7.60
2019-04-11T12:52:22.854Z,7.80
2019-04-11T12:53:22.902Z,7.60
2019-04-11T12:54:22.815Z,7.80
2019-04-11T12:55:22.793Z,7.40
2019-04-11T12:56:22.791Z,7.20
2019-04-11T12:57:22.804Z,6.90
2019-04-11T12:58:22.767Z,7.40
2019-04-11T12:59:22.747Z,7.60
2019-04-11T13:00:22.741Z,7.40
2019-04-11T13:01:22.755Z,7.10
2019-04-11T13:02:22.747Z,7.00
2019-04-11T13:03:22.760Z,7.90
2019-04-11T13:04:22.729Z,7.00
2019-04-11T13:05:22.689Z,7.90
2019-04-11T13:06:22.678Z,8.10
2019-04-11T13:07:22.664Z,7.90
2019-04-11T13:08:22.718Z,8.40
2019-04-11T13:09:22.654Z,8.10
2019-04-11T13:10:24.060Z,8.40
2019-04-11T13:11:22.620Z,8.30
2019-04-11T13:12:22.629Z,8.00
2019-04-11T13:13:22.703Z,7.80
2019-04-11T13:14:22.589Z,8.30
2019-04-11T13:15:22.596Z,8.00
2019-04-11T13:16:22.586Z,8.00
2019-04-11T13:17:22.591Z,8.70
2019-04-11T13:18:23.241Z,8.40
2019-04-11T13:19:23.195Z,8.10
2019-04-11T13:20:22.533Z,7.70
2019-04-11T13:21:22.515Z,9.20
2019-04-11T13:22:22.504Z,7.70
2019-04-11T13:23:23.190Z,8.00
2019-04-11T13:24:22.513Z,7.80
2019-04-11T13:25:22.473Z,8.70
2019-04-11T13:26:22.461Z,8.00
2019-04-11T13:27:22.452Z,8.00
2019-04-11T13:28:22.447Z,8.60
2019-04-11T13:29:22.472Z,7.40
2019-04-11T13:30:22.429Z,8.10
2019-04-11T13:31:22.411Z,8.20
2019-04-11T13:32:22.399Z,7.70
2019-04-11T13:33:22.389Z,7.90
2019-04-11T13:34:22.404Z,7.10
2019-04-11T13:35:22.409Z,7.20
2019-04-11T13:36:22.368Z,7.50
2019-04-11T13:37:22.345Z,7.90
2019-04-11T13:38:22.344Z,7.50
2019-04-11T13:39:22.393Z,7.50
2019-04-11T13:40:22.350Z,8.60
2019-04-11T13:41:22.329Z,7.80
2019-04-11T13:42:22.293Z,8.00
2019-04-11T13:43:22.306Z,7.90
2019-04-11T13:44:22.285Z,7.50
2019-04-11T13:45:22.301Z,7.40
2019-04-11T13:46:22.288Z,7.20
2019-04-11T13:47:22.242Z,7.30
2019-04-11T13:48:22.237Z,7.10
2019-04-11T13:49:22.217Z,7.80
2019-04-11T13:50:22.264Z,7.40
2019-04-11T13:51:22.205Z,7.60
2019-04-11T13:52:22.256Z,7.30
2019-04-11T13:53:22.200Z,7.20
2019-04-11T13:54:22.177Z,7.80
2019-04-11T13:55:22.193Z,7.60
2019-04-11T13:56:22.163Z,7.00
2019-04-11T13:57:22.147Z,7.40
2019-04-11T13:58:22.171Z,6.90
2019-04-11T13:59:22.192Z,7.20
2019-04-11T14:00:22.109Z,7.60
2019-04-11T14:01:22.164Z,7.60
2019-04-11T14:02:22.219Z,7.70
2019-04-11T14:03:22.079Z,7.60
2019-04-11T14:04:22.063Z,7.30
2019-04-11T14:05:22.101Z,7.70
2019-04-11T14:06:22.044Z,7.50
2019-04-11T14:07:23.654Z,7.60
2019-04-11T14:08:22.020Z,7.40
2019-04-11T14:09:22.037Z,7.80
2019-04-11T14:10:22.012Z,7.70
2019-04-11T14:11:21.992Z,7.80
2019-04-11T14:12:22.003Z,7.40
2019-04-11T14:13:21.973Z,7.80
2019-04-11T14:14:21.967Z,7.10
2019-04-11T14:15:21.992Z,7.70
2019-04-11T14:16:21.937Z,7.50
2019-04-11T14:17:22.057Z,7.80
2019-04-11T14:18:21.917Z,7.40
2019-04-11T14:19:21.916Z,7.70
2019-04-11T14:20:29.109Z,7.70
2019-04-11T14:21:22.955Z,7.80
2019-04-11T14:22:28.775Z,7.90
2019-04-11T14:23:22.863Z,7.90
2019-04-11T14:24:21.857Z,7.70
2019-04-11T14:25:21.852Z,7.80
2019-04-11T14:26:21.860Z,7.50
2019-04-11T14:27:21.828Z,7.70
2019-04-11T14:28:21.816Z,7.00
2019-04-11T14:29:21.821Z,7.40
2019-04-11T14:30:21.792Z,7.50
2019-04-11T14:31:22.658Z,7.60
2019-04-11T14:32:23.689Z,8.50
2019-04-11T14:33:25.126Z,7.50
2019-04-11T14:34:22.756Z,7.40
2019-04-11T14:35:21.765Z,7.10
2019-04-11T14:36:32.562Z,7.90
2019-04-11T14:37:22.729Z,7.80
2019-04-11T14:38:21.717Z,7.30
2019-04-11T14:39:21.778Z,7.20
2019-04-11T14:40:21.694Z,7.90
2019-04-11T14:41:21.729Z,7.30
2019-04-11T14:42:21.791Z,7.50
2019-04-11T14:43:21.659Z,7.30
2019-04-11T14:44:23.213Z,6.70
2019-04-11T14:45:21.652Z,7.00
2019-04-11T14:46:21.654Z,7.20
2019-04-11T14:47:21.615Z,6.70
2019-04-11T14:48:21.599Z,6.20
2019-04-11T14:49:21.616Z,7.00
2019-04-11T14:50:21.599Z,7.20
2019-04-11T14:51:23.726Z,6.20
2019-04-11T14:52:21.625Z,7.10
2019-04-11T14:53:21.544Z,6.50
2019-04-11T14:54:21.587Z,7.00
2019-04-11T14:55:21.531Z,7.00
2019-04-11T14:56:22.105Z,6.90
2019-04-11T14:57:23.154Z,7.30
2019-04-11T14:58:23.784Z,6.90
2019-04-11T14:59:23.990Z,7.50
2019-04-11T15:00:21.851Z,6.90
2019-04-11T15:01:23.632Z,6.50
2019-04-11T15:02:21.486Z,7.10
2019-04-11T15:03:21.458Z,7.10
2019-04-11T15:04:21.433Z,7.20
2019-04-11T15:05:21.516Z,6.80
2019-04-11T15:06:21.414Z,6.60
2019-04-11T15:07:21.452Z,6.90
2019-04-11T15:08:21.396Z,7.40
2019-04-11T15:09:21.407Z,7.20
2019-04-11T15:10:21.377Z,6.90
2019-04-11T15:11:21.359Z,6.80
2019-04-11T15:12:21.361Z,6.50
2019-04-11T15:13:21.334Z,6.80
2019-04-11T15:14:21.320Z,6.80
2019-04-11T15:15:21.327Z,6.50
2019-04-11T15:16:21.372Z,6.60
2019-04-11T15:17:21.318Z,6.60
2019-04-11T15:18:21.375Z,7.00
2019-04-11T15:19:23.840Z,6.50
2019-04-11T15:20:21.258Z,6.90
2019-04-11T15:21:21.303Z,6.70
2019-04-11T15:22:21.240Z,6.30
2019-04-11T15:23:21.226Z,6.60
2019-04-11T15:24:21.214Z,7.30
2019-04-11T15:25:21.212Z,7.00
2019-04-11T15:26:21.230Z,6.80
2019-04-11T15:27:21.179Z,6.80
2019-04-11T15:28:21.183Z,7.40
2019-04-11T15:29:21.205Z,6.70
2019-04-11T15:30:21.176Z,6.90
2019-04-11T15:31:22.021Z,6.60
2019-04-11T15:32:21.132Z,7.00
2019-04-11T15:33:21.144Z,6.50
2019-04-11T15:34:21.140Z,6.70
2019-04-11T15:35:21.112Z,6.50
2019-04-11T15:36:21.091Z,7.30
2019-04-11T15:37:21.079Z,6.60
2019-04-11T15:38:21.071Z,6.70
2019-04-11T15:39:21.137Z,7.10
2019-04-11T15:40:21.282Z,6.90
2019-04-11T15:41:21.076Z,6.90
2019-04-11T15:42:21.146Z,6.70
2019-04-11T15:43:21.026Z,6.60
2019-04-11T15:44:21.053Z,6.60
2019-04-11T15:45:20.997Z,6.60
2019-04-11T15:46:21.039Z,6.40
2019-04-11T15:47:20.991Z,7.00
2019-04-11T15:48:23.661Z,7.80
2019-04-11T15:49:29.581Z,8.00
2019-04-11T15:50:21.944Z,8.30
2019-04-11T15:51:20.951Z,8.30
2019-04-11T15:52:20.934Z,8.10
2019-04-11T15:53:20.913Z,7.90
2019-04-11T15:54:20.949Z,8.50
2019-04-11T15:55:20.911Z,8.70
2019-04-11T15:56:20.937Z,9.00
2019-04-11T15:57:20.979Z,8.30
2019-04-11T15:58:20.865Z,7.70
2019-04-11T15:59:20.888Z,8.00
2019-04-11T16:00:20.862Z,7.40
2019-04-11T16:01:20.867Z,8.10
2019-04-11T16:02:20.833Z,7.80
2019-04-11T16:03:20.810Z,8.20
2019-04-11T16:04:20.879Z,7.70
2019-04-11T16:05:20.797Z,7.50
2019-04-11T16:06:20.830Z,8.50
2019-04-11T16:07:20.777Z,8.10
2019-04-11T16:08:20.776Z,7.50
2019-04-11T16:09:20.781Z,8.00
2019-04-11T16:10:20.751Z,8.00
2019-04-11T16:11:20.744Z,7.60
2019-04-11T16:12:20.724Z,7.70
2019-04-11T16:13:20.750Z,7.70
2019-04-11T16:14:20.798Z,7.90
2019-04-11T16:15:23.126Z,8.10
2019-04-11T16:16:20.689Z,8.40
2019-04-11T16:17:20.695Z,8.20
2019-04-11T16:18:20.676Z,8.60
2019-04-11T16:19:20.643Z,7.80
2019-04-11T16:20:20.659Z,7.70
2019-04-11T16:21:24.088Z,7.30
2019-04-11T16:22:24.695Z,7.20
2019-04-11T16:23:20.636Z,7.00
2019-04-11T16:24:22.454Z,7.20
2019-04-11T16:25:20.771Z,8.00
2019-04-11T16:26:20.603Z,7.70
2019-04-11T16:27:20.588Z,7.80
2019-04-11T16:28:20.576Z,8.10
2019-04-11T16:29:20.538Z,7.80
2019-04-11T16:30:20.541Z,8.40
2019-04-11T16:31:20.520Z,8.10
2019-04-11T16:32:21.124Z,8.30
2019-04-11T16:33:20.652Z,8.30
2019-04-11T16:34:20.497Z,8.10
2019-04-11T16:35:20.494Z,7.80
2019-04-11T16:36:20.489Z,8.00
2019-04-11T16:37:20.467Z,8.40
2019-04-11T16:38:20.482Z,8.30
2019-04-11T16:39:20.719Z,8.20
2019-04-11T16:40:20.895Z,7.90
2019-04-11T16:41:23.752Z,8.10
2019-04-11T16:42:21.874Z,7.90
2019-04-11T16:43:24.138Z,8.00
2019-04-11T16:44:20.417Z,8.40
2019-04-11T16:45:20.370Z,8.40
2019-04-11T16:46:20.368Z,8.70
2019-04-11T16:47:20.378Z,8.20
2019-04-11T16:48:20.337Z,8.30
2019-04-11T16:49:20.351Z,8.20
2019-04-11T16:50:20.359Z,9.00
2019-04-11T16:51:30.387Z,8.70
2019-04-11T16:52:21.305Z,8.60
2019-04-11T16:53:20.302Z,8.50
2019-04-11T16:54:20.299Z,8.60
2019-04-11T16:55:20.286Z,8.40
2019-04-11T16:56:20.257Z,8.30
2019-04-11T16:57:20.250Z,8.30
2019-04-11T16:58:20.240Z,8.60
2019-04-11T16:59:20.668Z,8.40
2019-04-11T17:00:21.185Z,7.90
2019-04-11T17:01:20.732Z,7.90
2019-04-11T17:02:21.831Z,8.50
2019-04-11T17:03:24.733Z,8.70
2019-04-11T17:04:20.192Z,8.20
2019-04-11T17:05:20.205Z,8.50
2019-04-11T17:06:20.214Z,9.10
2019-04-11T17:07:20.161Z,8.40
2019-04-11T17:08:20.147Z,8.80
2019-04-11T17:09:20.333Z,8.50
2019-04-11T17:10:20.114Z,8.50
2019-04-11T17:11:20.193Z,8.80
2019-04-11T17:12:20.112Z,8.80
2019-04-11T17:13:20.144Z,8.30
2019-04-11T17:14:27.903Z,10.10
2019-04-11T17:15:21.068Z,8.30
2019-04-11T17:16:20.086Z,8.60
2019-04-11T17:17:20.084Z,8.60
2019-04-11T17:18:20.096Z,8.60
2019-04-11T17:19:20.023Z,8.20
2019-04-11T17:20:20.037Z,8.60
2019-04-11T17:21:20.128Z,8.90
2019-04-11T17:22:20.072Z,8.90
2019-04-11T17:23:19.986Z,8.60
2019-04-11T17:24:20.028Z,8.80
2019-04-11T17:25:20.366Z,8.80
2019-04-11T17:26:22.893Z,11.10
2019-04-11T17:27:20.892Z,11.40
2019-04-11T17:28:22.612Z,8.50
2019-04-11T17:29:24.629Z,9.30
2019-04-11T17:30:19.939Z,8.70
2019-04-11T17:31:19.899Z,8.80
2019-04-11T17:32:19.930Z,8.50
2019-04-11T17:33:19.887Z,8.20
2019-04-11T17:34:19.860Z,8.20
2019-04-11T17:35:19.861Z,8.00
2019-04-11T17:36:19.857Z,8.30
2019-04-11T17:37:19.856Z,8.10
2019-04-11T17:38:19.844Z,8.60
2019-04-11T17:39:20.318Z,8.50
2019-04-11T17:40:19.793Z,8.30
2019-04-11T17:41:24.742Z,8.20
2019-04-11T17:42:19.789Z,8.20
2019-04-11T17:43:19.925Z,8.10
2019-04-11T17:44:19.784Z,8.60
2019-04-11T17:45:19.752Z,8.50
2019-04-11T17:46:19.750Z,8.60
2019-04-11T17:47:19.720Z,8.30
2019-04-11T17:48:19.738Z,8.40
2019-04-11T17:49:19.768Z,9.00
2019-04-11T17:50:19.713Z,8.40
2019-04-11T17:51:19.744Z,8.50
2019-04-11T17:52:19.667Z,8.30
2019-04-11T17:53:19.661Z,8.50
2019-04-11T17:54:19.657Z,8.10
2019-04-11T17:55:23.642Z,8.40
2019-04-11T17:56:19.651Z,8.00
2019-04-11T17:57:19.630Z,8.60
2019-04-11T17:58:19.627Z,8.30
2019-04-11T17:59:19.643Z,8.10
2019-04-11T18:00:19.619Z,8.40
2019-04-11T18:01:19.598Z,7.90
2019-04-11T18:02:19.606Z,8.50
2019-04-11T18:03:19.623Z,8.30
2019-04-11T18:04:19.582Z,7.60
2019-04-11T18:05:19.615Z,9.20
2019-04-11T18:06:19.565Z,10.00
2019-04-11T18:07:19.539Z,9.40
2019-04-11T18:08:20.158Z,9.00
2019-04-11T18:09:20.074Z,8.00
2019-04-11T18:10:19.493Z,8.50
2019-04-11T18:11:19.463Z,8.40
2019-04-11T18:12:19.530Z,7.70
2019-04-11T18:13:19.470Z,7.50
2019-04-11T18:14:19.486Z,8.20
2019-04-11T18:15:19.427Z,8.30
2019-04-11T18:16:19.420Z,7.80
2019-04-11T18:17:19.421Z,8.00
2019-04-11T18:18:19.444Z,8.50
2019-04-11T18:19:19.643Z,8.20
2019-04-11T18:20:19.366Z,8.20
2019-04-11T18:21:19.462Z,8.20
2019-04-11T18:22:19.392Z,8.90
2019-04-11T18:23:19.845Z,8.10
2019-04-11T18:24:19.937Z,8.10
2019-04-11T18:25:21.034Z,8.20
2019-04-11T18:26:21.489Z,7.70
2019-04-11T18:27:21.525Z,7.90
2019-04-11T18:28:21.697Z,8.30
2019-04-11T18:29:22.799Z,7.70
2019-04-11T18:30:20.921Z,7.50
2019-04-11T18:31:19.271Z,8.00
2019-04-11T18:32:19.243Z,7.60
2019-04-11T18:33:19.274Z,7.80
2019-04-11T18:34:19.230Z,7.70
2019-04-11T18:35:19.213Z,7.70
2019-04-11T18:36:19.200Z,8.50
2019-04-11T18:37:19.194Z,8.30
2019-04-11T18:38:19.208Z,8.50
2019-04-11T18:39:19.170Z,8.50
2019-04-11T18:40:19.175Z,8.00
2019-04-11T18:41:19.164Z,8.20
2019-04-11T18:42:19.227Z,7.70
2019-04-11T18:43:19.140Z,9.40
2019-04-11T18:44:19.115Z,8.60
2019-04-11T18:45:19.220Z,8.20
2019-04-11T18:46:19.137Z,8.30
2019-04-11T18:47:19.102Z,8.70
2019-04-11T18:48:19.090Z,8.70
2019-04-11T18:49:21.513Z,14.00
2019-04-11T18:50:22.758Z,8.40
2019-04-11T18:51:20.933Z,7.90
2019-04-11T18:52:20.114Z,8.00
2019-04-11T18:53:19.240Z,8.20
2019-04-11T18:54:19.073Z,8.00
2019-04-11T18:55:19.073Z,8.10
2019-04-11T18:56:19.002Z,8.20
2019-04-11T18:57:18.971Z,8.40
2019-04-11T18:58:19.002Z,8.10
2019-04-11T18:59:18.961Z,7.50
